Accueil
METAR-TAF:

METAR-TAF

Aéroports :

Aéroport international de Bergame-Orio al Serio (Le Caravage)

Bergame, Italie

latitude: 45-40N, longitude: 009-42E, altitude: 238 m

Observation

Le bulletin a été fait il y a 10 minutes, à 19:20 UTC
Vent 9 kt de nord/nord-est
Température 13°C
Humidité 58%
Pression 1011 hPa
Visibilité 10 km ou plus

METAR: LIME 291920Z AUTO 02009KT 9999 BKN097/// 13/05 Q1011

Heure: 21:30 (19:30 UTC)

Prévision

Le bulletin a été fait il y a 2 heures et 30 minutes, à 17:00 UTC
Prévision valable du 29 à 18 UTC au 30 à 18 UTC
Vent 5 kt de direction variable
Visibilité: 8000 m
Nuages épars à une hauteur de 5000 ft
Temporairement
du 30 à 00 UTC au 30 à 18 UTC
Visibilité: 4000 m
pluie

TAF: LIME 291700Z 2918/3018 VRB05KT 8000 SCT050 TEMPO 3000/3018 4000 RA

Observations et prévisions météorologiques de plus de 4000 aéroports (messages METAR et TAF).

Les stations disponibles sont représentées par des disques jaunes et rouges sur la carte.

Passer la souris dessus pour voir le nom de la station.

Cliquer dessus pour voir les observations et prévisions météorologiques.

Pour changer de carte: cliquez sur les boutons verts avec une croix noire pour zoomer, sur le bouton vert avec un tiret pour effectuer un zoom arrière, ou sur les flèches vertes pour les cartes adjacentes.


METAR-TAF: